Mountain View, Missouri
Current Conditions -  °F | °C
As of 7:53 PM on Wednesday 17 Dec 2014 (Local Time) from KUNO Reporting Station
Light Rain Light Rain  
Wind Chill: 35°   Ceiling: 5000
Heat Index: 35°   Visibility: 7mi
Dew Point: 31°   Wind: 0mph
Humidity: 85%   Direction: NA
Pressure: 30.24"   Gusts: NA
Location:  37°N, 91.7°W
Report Text: KUNO 180153Z AUTO 00000KT 7SM -RA OVC050 02/M01 A3024 RMK AO2 UPB02E17 SLP252 P0003 T00171006
Loading
Personal Weather Stations






























Interactive Weather Map New forecast layout! Learn more

10-Day Weather Forecast

Advertisements
Track Severe Weather on mobile